KISW/ISW METAR and TAF weather

Enter ICAO airport designator
Station Type Date Time Source
KISW METAR 2024/06/14 01:54 UTC NOAA

KISW 140154Z AUTO 31004KT 10SM CLR 22/09 A2988 RMK AO2 SLP113 T02170094


Station Type Date Time Source
KISW Decoded METAR 2024/06/14 01:54 UTC NOAA

WI RAPIDS ALEXANDER FIELD, WI, United States (KISW) 44-22N 89-50W 307M
Jun 13, 2024 - 09:54 PM EDT / 2024.06.14 0154 UTC
Wind: from the NW (310 degrees) at 5 MPH (4 KT):0
Visibility: 10 mile(s):0
Sky conditions: clear
Temperature: 71.1 F (21.7 C)
Dew Point: 48.9 F (9.4 C)
Relative Humidity: 45%
Pressure (altimeter): 29.88 in. Hg (1011 hPa)
ob: KISW 140154Z AUTO 31004KT 10SM CLR 22/09 A2988 RMK AO2 SLP113 T02170094
cycle: 2

Station Type Date Time Source
KISW TAF UTC NOAA

Error!

Example: see airport list